ADDS METAR Data INFO
IDs: Format: Raw Decoded Include TAF

Data at: 1750 UTC 24 Mar 2017

METAR for:KBRO (Brownsville Intl, TX, US)
Text:KBRO 241653Z 16024G32KT 10SM SCT026 BKN037 BKN046 28/21 A2996 RMK AO2 PK WND 16036/1643 SLP143 T02780206
Temperature: 27.8°C ( 82°F)
Dewpoint: 20.6°C ( 69°F) [RH = 65%]
Pressure (altimeter):29.96 inches Hg (1014.6 mb) [Sea level pressure: 1014.3 mb]
Winds:from the SSE (160 degrees) at 28 MPH (24 knots; 12.3 m/s) gusting to 37 MPH (32 knots; 16.5 m/s)
Visibility:10 or more sm (16+ km)
Ceiling:3700 feet AGL
Clouds: scattered clouds at 2600 feet AGL, broken clouds at 3700 feet AGL, broken clouds at 4600 feet AGL


Page loaded:  17:50 UTC  |   10:50 AM Pacific  |   11:50 AM Mountain  |   12:50 PM Central  |   01:50 PM Eastern

 

ADVISORIES

FORECASTS

FORECASTS

OBSERVATIONS

USER TOOLS

ABOUT US